Estación Meteorológica Peña el Pijo (Robertgarden) [ 02/03/23 03:42:17 CET ]

Fecha Hora Presion(HPa) Temp (°C) Humedad % Rocio (°C) Viento ( m/s) Direccion Lluvia 1Hora(mm) Lluvia 24H(mm) LLuvia Total(mm)
2012-Jul-09 01:01:16 1011.700 16.6 42 3.6         167.83
2012-Jul-09 02:01:11 1011.700 16.4 40 2.8         167.83
2012-Jul-09 03:03:14 1011.200 16.1 39 2.1         167.83
2012-Jul-09 04:01:12 1010.900 14.6 43 2.1         167.83
2012-Jul-09 05:01:13 1010.800 13.8 46 2.3         167.83
2012-Jul-09 06:01:11 1010.800 12.6 51 2.7         167.83
2012-Jul-09 07:01:14 1010.900 11.5 55 2.7         167.83
2012-Jul-09 08:01:17 1011.000 13.3 55 4.4         167.83
2012-Jul-09 09:01:16 1010.900 19.9 46 7.9         167.83
2012-Jul-09 10:01:18 1010.800 25.9 35 9.2         167.83
2012-Jul-09 11:01:12 1010.800 30.9 20 5.4         167.83
2012-Jul-09 12:01:12 1010.900 32.3 16 2.7         167.83
2012-Jul-09 13:01:14 1010.500 33.0 16 3.2 1.1 SSW     167.83
2012-Jul-09 14:01:12 1010.200 34.7 13 1.6         167.83
2012-Jul-09 15:01:13 1010.300 35.9 14 3.5 1.7 NE     167.83
2012-Jul-09 16:01:17 1010.100 34.0 16 4.0         167.83
2012-Jul-09 17:01:22 1009.600 38.2 15 5.4         167.83
2012-Jul-09 18:01:13 1009.600 37.3 12 2.6         167.83
2012-Jul-09 19:01:18 1009.500 35.1 12 0.9 1.6 SSW     167.83
2012-Jul-09 20:01:14 1009.700 32.8 14 1.1 1.8 WSW     167.83
2012-Jul-09 21:01:12 1010.100 28.9 17 0.9         167.83
2012-Jul-09 22:01:12 1010.800 24.3 24 2.2         167.83
2012-Jul-09 23:01:14 1011.300 20.3 30 2.2         167.83

Temperatura Máxima:38°    Temperatura Mínima:11°
Presión Máxima:1011.700 Hpa    Presión Mínima:1009.500 Hpa


Volver